This is the latest recevied weather packets stored in our database for station/object WO5CID. If no packets are shown the sender has not sent any weather packets the latest 10 day(s).
| Time | Temp. | Humidity | Pressure | Rain* | Wind** | Luminosity | Snow |
|---|---|---|---|---|---|---|---|
| 1778023491 | 25° C | 50% | 1014.6 hPa | 0 mm | - | 24 W/m² | - |
| 1778023183 | 25° C | 49% | 1015 hPa | 0 mm | - | 39 W/m² | - |
| 1778022880 | 25.56° C | 49% | 1014.7 hPa | 0 mm | - | 47 W/m² | - |
| 1778022578 | 25.56° C | 48% | 1014.9 hPa | 0 mm | - | 44 W/m² | - |
| 1778022276 | 25.56° C | 47% | 1014.7 hPa | 0 mm | - | 50 W/m² | - |
| 1778021972 | 26.11° C | 47% | 1014.7 hPa | 0 mm | - | 50 W/m² | - |
| 1778021668 | 26.11° C | 49% | 1014.6 hPa | 0 mm | - | 52 W/m² | - |
| 1778021364 | 26.11° C | 47% | 1014.7 hPa | 0 mm | - | 56 W/m² | - |
| 1778021056 | 26.67° C | 47% | 1015 hPa | 0 mm | - | 69 W/m² | - |
| 1778020753 | 27.22° C | 46% | 1014.6 hPa | 0 mm | - | 63 W/m² | - |
| 1778020450 | 27.22° C | 46% | 1014.7 hPa | 0 mm | - | 123 W/m² | - |
| 1778020146 | 27.22° C | 45% | 1014.7 hPa | 0 mm | - | 144 W/m² | - |
| 1778019843 | 27.22° C | 44% | 1014.5 hPa | 0 mm | - | 170 W/m² | - |
| 1778019539 | 27.78° C | 44% | 1014.6 hPa | 0 mm | - | 130 W/m² | - |
| 1778019236 | 27.78° C | 43% | 1014.5 hPa | 0 mm | - | 142 W/m² | - |
| 1778018933 | 28.33° C | 42% | 1014.5 hPa | 0 mm | - | 124 W/m² | - |
| 1778018630 | 28.33° C | 42% | 1014.5 hPa | 0 mm | - | 247 W/m² | - |
| 1778018328 | 28.89° C | 42% | 1014.5 hPa | 0 mm | - | 282 W/m² | - |
| 1778018026 | 28.89° C | 42% | 1014.7 hPa | 0 mm | - | 300 W/m² | - |
| 1778017724 | 28.89° C | 42% | 1014.6 hPa | 0 mm | - | 277 W/m² | - |
| 1778017421 | 28.89° C | 41% | 1014.3 hPa | 0 mm | - | 385 W/m² | - |
| 1778017118 | 28.89° C | 40% | 1014.5 hPa | 0 mm | - | 226 W/m² | - |
| 1778016816 | 28.89° C | 40% | 1014.5 hPa | 0 mm | - | 356 W/m² | - |
| 1778016511 | 28.89° C | 42% | 1014.6 hPa | 0 mm | - | 433 W/m² | - |
| 1778016209 | 30° C | 41% | 1014.6 hPa | 0 mm | - | 166 W/m² | - |
* Rain latest hour (hover to see other rain measurements)
** Current wind speed in m/s (hover to see current wind gust speed)